Time;durP1;ratioP1;P1;durP2;ratioP2;P2;SDS_P1;SDS_P2;PMS_P1;PMS_P2;Temp;Humidity;BMP_temperature;BMP_pressure;BME280_temperature;BME280_humidity;BME280_pressure;Samples;Min_cycle;Max_cycle;Signal;HPM_P1;HPM_P2
2023/12/20 00:00:10;;;;;;;0.00;0.00;;;25.90;47.30;;;;;;5071077;28;20211;-41
2023/12/20 00:02:40;;;;;;;0.00;0.00;;;25.90;47.20;;;;;;5070829;28;20663;-42
2023/12/20 00:05:11;;;;;;;0.00;0.00;;;25.90;47.10;;;;;;5069920;28;20226;-42
2023/12/20 00:07:42;;;;;;;0.00;0.00;;;25.90;47.00;;;;;;5070994;28;20241;-42
2023/12/20 00:10:14;;;;;;;0.00;0.00;;;25.90;47.00;;;;;;5085090;22;20187;-49
2023/12/20 00:12:45;;;;;;;0.00;0.00;;;25.90;47.00;;;;;;5070838;28;20696;-49
2023/12/20 00:15:16;;;;;;;0.00;0.00;;;26.00;47.00;;;;;;5070810;28;20206;-51
2023/12/20 00:17:46;;;;;;;0.00;0.00;;;26.00;46.90;;;;;;5069850;28;20205;-48
2023/12/20 00:20:17;;;;;;;0.00;0.00;;;26.00;47.00;;;;;;5070619;28;20194;-49
2023/12/20 00:22:48;;;;;;;0.00;0.00;;;26.00;47.10;;;;;;5071066;28;20194;-48
2023/12/20 00:25:20;;;;;;;0.00;0.00;;;26.10;47.20;;;;;;5070815;28;20573;-48
2023/12/20 00:27:51;;;;;;;0.00;0.00;;;26.10;47.30;;;;;;5070769;28;20698;-48
2023/12/20 00:30:22;;;;;;;0.00;0.00;;;26.10;47.30;;;;;;5070466;28;20212;-48
2023/12/20 00:32:52;;;;;;;0.00;0.00;;;26.10;47.30;;;;;;5071025;28;20198;-49
2023/12/20 00:35:23;;;;;;;0.00;0.00;;;26.10;47.30;;;;;;5070369;28;20690;-48
2023/12/20 00:37:54;;;;;;;0.00;0.00;;;26.10;47.20;;;;;;5070852;28;20199;-48
2023/12/20 00:40:26;;;;;;;0.00;0.00;;;26.10;47.20;;;;;;5070490;28;20191;-48
2023/12/20 00:42:57;;;;;;;0.00;0.00;;;26.20;47.30;;;;;;5070171;28;20256;-47
2023/12/20 00:45:28;;;;;;;0.00;0.00;;;26.20;47.30;;;;;;5071096;28;20260;-49
2023/12/20 00:47:59;;;;;;;0.00;0.00;;;26.20;47.30;;;;;;5070943;28;20390;-47
2023/12/20 00:50:30;;;;;;;0.00;0.00;;;26.20;47.30;;;;;;5070941;28;20730;-51
2023/12/20 00:53:01;;;;;;;0.00;0.00;;;26.30;47.40;;;;;;5070180;28;20248;-47
2023/12/20 00:55:33;;;;;;;0.00;0.00;;;26.30;47.40;;;;;;5067726;28;20253;-47
2023/12/20 00:58:04;;;;;;;0.00;0.00;;;26.30;47.30;;;;;;5070684;28;20222;-47
2023/12/20 01:00:34;;;;;;;0.00;0.00;;;26.40;47.40;;;;;;5070583;28;20190;-48
2023/12/20 01:03:05;;;;;;;0.00;0.00;;;26.40;47.40;;;;;;5070869;28;20507;-49
2023/12/20 01:05:36;;;;;;;0.00;0.00;;;26.40;47.50;;;;;;5070175;28;20254;-49
2023/12/20 01:08:07;;;;;;;0.00;0.00;;;26.50;47.50;;;;;;5073479;28;20250;-48
2023/12/20 01:10:40;;;;;;;0.00;0.00;;;26.50;47.40;;;;;;5094524;22;20631;-46
2023/12/20 01:13:10;;;;;;;0.00;0.00;;;26.50;47.40;;;;;;5096929;28;20285;-48
2023/12/20 01:15:41;;;;;;;0.00;0.00;;;26.50;47.40;;;;;;5097309;28;20727;-52
2023/12/20 01:18:12;;;;;;;0.00;0.00;;;26.50;47.40;;;;;;5097490;28;20196;-49
2023/12/20 01:20:43;;;;;;;0.00;0.00;;;26.60;47.40;;;;;;5097182;28;20304;-46
2023/12/20 01:23:13;;;;;;;0.00;0.00;;;26.60;47.40;;;;;;5114275;28;20205;-45
2023/12/20 01:25:46;;;;;;;0.00;0.00;;;26.60;47.50;;;;;;5117169;28;20213;-47
2023/12/20 01:28:16;;;;;;;0.00;0.00;;;26.60;47.40;;;;;;5117201;28;20217;-42
2023/12/20 01:30:47;;;;;;;0.00;0.00;;;26.60;47.40;;;;;;5117663;28;20208;-43
2023/12/20 01:33:18;;;;;;;0.00;0.00;;;26.60;47.50;;;;;;5118086;28;20194;-52
2023/12/20 01:35:50;;;;;;;0.00;0.00;;;26.70;47.50;;;;;;5114681;28;20232;-51
2023/12/20 01:38:20;;;;;;;0.00;0.00;;;26.70;47.50;;;;;;5117923;28;20572;-49
2023/12/20 01:40:53;;;;;;;0.00;0.00;;;26.80;47.60;;;;;;5117841;28;20201;-49
2023/12/20 01:43:23;;;;;;;0.00;0.00;;;26.80;47.50;;;;;;5076822;28;20203;-49
2023/12/20 01:45:54;;;;;;;0.00;0.00;;;26.80;47.60;;;;;;5076394;28;20218;-49
2023/12/20 01:48:26;;;;;;;0.00;0.00;;;26.80;47.60;;;;;;5077952;28;20875;-46
2023/12/20 01:50:58;;;;;;;0.00;0.00;;;26.90;47.60;;;;;;5117587;28;20204;-51
2023/12/20 01:53:30;;;;;;;0.00;0.00;;;26.90;47.60;;;;;;5111185;28;20760;-51
2023/12/20 01:56:03;;;;;;;0.00;0.00;;;26.90;47.60;;;;;;5097437;28;20724;-50
2023/12/20 01:58:33;;;;;;;0.00;0.00;;;27.00;47.60;;;;;;5096588;28;20190;-49
2023/12/20 02:01:04;;;;;;;0.00;0.00;;;26.90;47.50;;;;;;5097251;28;20194;-48
2023/12/20 02:03:36;;;;;;;0.00;0.00;;;27.00;47.50;;;;;;5105890;28;20233;-49
2023/12/20 02:06:07;;;;;;;0.00;0.00;;;27.00;47.60;;;;;;5116587;28;20221;-47
2023/12/20 02:08:38;;;;;;;0.00;0.00;;;27.00;47.60;;;;;;5117802;28;20224;-47
2023/12/20 02:11:12;;;;;;;0.00;0.00;;;27.00;47.60;;;;;;5115750;28;20201;-51
2023/12/20 02:13:43;;;;;;;0.00;0.00;;;27.00;47.60;;;;;;5096468;28;20197;-47
2023/12/20 02:16:14;;;;;;;0.00;0.00;;;27.00;47.70;;;;;;5097393;28;20642;-50
2023/12/20 02:18:46;;;;;;;0.00;0.00;;;27.10;47.70;;;;;;5077830;28;20195;-50
2023/12/20 02:21:17;;;;;;;0.00;0.00;;;27.10;47.70;;;;;;5093194;28;20198;-50
2023/12/20 02:23:49;;;;;;;0.00;0.00;;;27.10;47.70;;;;;;5093585;28;20199;-47
2023/12/20 02:26:20;;;;;;;0.00;0.00;;;27.10;47.80;;;;;;5093668;28;20194;-47
2023/12/20 02:28:51;;;;;;;0.00;0.00;;;27.10;47.80;;;;;;5093548;28;20229;-52
2023/12/20 02:31:24;;;;;;;0.00;0.00;;;27.10;47.80;;;;;;5109830;28;20632;-50
2023/12/20 02:33:55;;;;;;;0.00;0.00;;;27.20;47.90;;;;;;5113974;28;20315;-52
2023/12/20 02:36:26;;;;;;;0.00;0.00;;;27.20;47.90;;;;;;5113617;28;20254;-49
2023/12/20 02:38:58;;;;;;;0.00;0.00;;;27.20;47.90;;;;;;5096443;28;20233;-49
2023/12/20 02:41:29;;;;;;;0.00;0.00;;;27.20;47.90;;;;;;5093217;28;20198;-50
2023/12/20 02:44:00;;;;;;;0.00;0.00;;;27.20;47.90;;;;;;5100659;28;20221;-48
2023/12/20 02:46:30;;;;;;;0.00;0.00;;;27.30;48.00;;;;;;5113299;28;20846;-44
2023/12/20 02:49:01;;;;;;;0.00;0.00;;;27.30;47.90;;;;;;5113038;28;20612;-48
2023/12/20 02:51:32;;;;;;;0.00;0.00;;;27.30;47.90;;;;;;5113762;28;20646;-50
2023/12/20 02:54:04;;;;;;;0.00;0.00;;;27.40;48.10;;;;;;5113956;28;20280;-47
2023/12/20 02:56:35;;;;;;;0.00;0.00;;;27.40;48.10;;;;;;5113030;28;20276;-51
2023/12/20 02:59:08;;;;;;;0.00;0.00;;;27.40;48.10;;;;;;5104639;28;20313;-48
2023/12/20 03:01:44;;;;;;;0.00;0.00;;;27.40;48.10;;;;;;5090610;28;20190;-49
2023/12/20 03:04:15;;;;;;;0.00;0.00;;;27.40;48.10;;;;;;5073042;28;20306;-48
2023/12/20 03:06:45;;;;;;;0.00;0.00;;;27.40;48.10;;;;;;5072342;28;20229;-50
2023/12/20 03:09:18;;;;;;;0.00;0.00;;;27.50;48.20;;;;;;5072213;28;20264;-50
2023/12/20 03:11:49;;;;;;;0.00;0.00;;;27.50;48.20;;;;;;5084634;28;20229;-46
2023/12/20 03:14:20;;;;;;;0.00;0.00;;;27.50;48.20;;;;;;5092027;28;20210;-49
2023/12/20 03:16:52;;;;;;;0.00;0.00;;;27.50;48.20;;;;;;5072366;28;20256;-49
2023/12/20 03:19:23;;;;;;;0.00;0.00;;;27.60;48.30;;;;;;5071646;28;20229;-51
2023/12/20 03:21:54;;;;;;;0.00;0.00;;;27.60;48.30;;;;;;5093148;28;20230;-49
2023/12/20 03:24:26;;;;;;;0.00;0.00;;;27.60;48.20;;;;;;5092729;28;20225;-49
2023/12/20 03:26:57;;;;;;;0.00;0.00;;;27.60;48.20;;;;;;5073087;28;20202;-49
2023/12/20 03:29:28;;;;;;;0.00;0.00;;;27.60;48.20;;;;;;5071322;28;20314;-48
2023/12/20 03:31:58;;;;;;;0.00;0.00;;;27.70;48.90;;;;;;5090920;28;20272;-47
2023/12/20 03:34:29;;;;;;;0.00;0.00;;;27.70;48.20;;;;;;5092453;28;20218;-47
2023/12/20 03:37:00;;;;;;;0.00;0.00;;;27.70;48.30;;;;;;5091970;28;20198;-49
2023/12/20 03:39:32;;;;;;;0.00;0.00;;;27.80;48.30;;;;;;5108578;28;20285;-46
2023/12/20 03:42:03;;;;;;;0.00;0.00;;;27.70;48.20;;;;;;5081378;28;20284;-50
2023/12/20 03:44:34;;;;;;;0.00;0.00;;;27.80;48.30;;;;;;5092315;28;20217;-43
2023/12/20 03:47:05;;;;;;;0.00;0.00;;;27.80;48.20;;;;;;5072037;28;20268;-43
2023/12/20 03:49:36;;;;;;;0.00;0.00;;;27.80;48.20;;;;;;5071278;28;20309;-42
2023/12/20 03:52:07;;;;;;;0.00;0.00;;;27.90;48.90;;;;;;5088433;28;20451;-44
2023/12/20 03:54:41;;;;;;;0.00;0.00;;;27.90;48.20;;;;;;5097152;28;20550;-49
2023/12/20 03:57:12;;;;;;;0.00;0.00;;;27.90;48.20;;;;;;5092019;28;20194;-41
2023/12/20 03:59:43;;;;;;;0.00;0.00;;;27.90;48.20;;;;;;5091378;28;20209;-41
2023/12/20 04:02:13;;;;;;;0.00;0.00;;;27.90;48.10;;;;;;5072469;28;20234;-44
2023/12/20 04:04:44;;;;;;;0.00;0.00;;;28.00;48.20;;;;;;5071769;28;20782;-49
2023/12/20 04:07:15;;;;;;;0.00;0.00;;;28.00;48.10;;;;;;5104218;28;20194;-44
2023/12/20 04:09:48;;;;;;;0.00;0.00;;;28.00;48.00;;;;;;5111338;28;20557;-46
2023/12/20 04:12:18;;;;;;;0.00;0.00;;;28.00;48.00;;;;;;5084474;28;20210;-47
2023/12/20 04:14:49;;;;;;;0.00;0.00;;;28.00;48.00;;;;;;5090511;28;20224;-44
2023/12/20 04:17:20;;;;;;;0.00;0.00;;;28.10;48.00;;;;;;5091418;28;20634;-46
2023/12/20 04:19:50;;;;;;;0.00;0.00;;;28.10;47.90;;;;;;5110484;28;20642;-48
2023/12/20 04:22:21;;;;;;;0.00;0.00;;;28.10;47.80;;;;;;5071214;28;20202;-44
2023/12/20 04:24:54;;;;;;;0.00;0.00;;;28.10;47.70;;;;;;5089674;28;20225;-49
2023/12/20 04:27:25;;;;;;;0.00;0.00;;;28.20;47.70;;;;;;5070463;28;20195;-46
2023/12/20 04:29:55;;;;;;;0.00;0.00;;;28.10;47.60;;;;;;5070724;28;20225;-43
2023/12/20 04:32:26;;;;;;;0.00;0.00;;;28.20;47.60;;;;;;5091611;28;20273;-49
2023/12/20 04:34:57;;;;;;;0.00;0.00;;;28.20;47.60;;;;;;5091459;28;20253;-42
2023/12/20 04:37:27;;;;;;;0.00;0.00;;;28.20;47.60;;;;;;5090567;28;20190;-45
2023/12/20 04:40:00;;;;;;;0.00;0.00;;;28.30;47.70;;;;;;5090660;28;20226;-51
2023/12/20 04:42:31;;;;;;;0.00;0.00;;;28.20;47.60;;;;;;5083476;28;20198;-50
2023/12/20 04:45:01;;;;;;;0.00;0.00;;;28.30;47.60;;;;;;5090916;28;20296;-45
2023/12/20 04:47:32;;;;;;;0.00;0.00;;;28.30;47.60;;;;;;5105590;28;20267;-52
2023/12/20 04:50:03;;;;;;;0.00;0.00;;;28.30;47.50;;;;;;5110865;28;20302;-50
2023/12/20 04:52:34;;;;;;;0.00;0.00;;;28.40;47.60;;;;;;5071284;28;20195;-44
2023/12/20 04:55:07;;;;;;;0.00;0.00;;;28.40;47.50;;;;;;5071241;28;20210;-52
2023/12/20 04:57:38;;;;;;;0.00;0.00;;;28.40;48.20;;;;;;5078000;28;20221;-52
2023/12/20 05:00:10;;;;;;;0.00;0.00;;;28.40;47.50;;;;;;5097766;28;20204;-46
2023/12/20 05:02:41;;;;;;;0.00;0.00;;;28.40;47.40;;;;;;5090694;28;20191;-47
2023/12/20 05:05:12;;;;;;;0.00;0.00;;;28.50;48.10;;;;;;5089415;28;20313;-46
2023/12/20 05:07:43;;;;;;;0.00;0.00;;;28.50;47.50;;;;;;5090831;28;20194;-42
2023/12/20 05:12:48;;;;;;;0.00;0.00;;;28.50;47.40;;;;;;5107139;28;20227;-48
2023/12/20 05:15:18;;;;;;;0.00;0.00;;;28.50;47.40;;;;;;5110443;28;20217;-49
2023/12/20 05:17:49;;;;;;;0.00;0.00;;;28.60;47.40;;;;;;5090250;28;20194;-49
2023/12/20 05:20:20;;;;;;;0.00;0.00;;;28.60;47.40;;;;;;5090144;28;20202;-54
2023/12/20 05:22:50;;;;;;;0.00;0.00;;;28.60;47.40;;;;;;5090593;28;20277;-54
2023/12/20 05:25:21;;;;;;;0.00;0.00;;;28.60;47.40;;;;;;5090651;28;20221;-51
2023/12/20 05:27:55;;;;;;;0.00;0.00;;;28.60;47.40;;;;;;5090455;28;20194;-50
2023/12/20 05:30:26;;;;;;;0.00;0.00;;;28.70;47.60;;;;;;5091160;28;20329;-49
2023/12/20 05:32:57;;;;;;;0.00;0.00;;;28.70;47.60;;;;;;5090766;28;20670;-51
2023/12/20 05:35:28;;;;;;;0.00;0.00;;;28.70;47.50;;;;;;5090377;28;20218;-48
2023/12/20 05:37:58;;;;;;;0.00;0.00;;;28.70;47.40;;;;;;5089975;28;20226;-50
2023/12/20 05:40:29;;;;;;;0.00;0.00;;;28.70;47.40;;;;;;5089951;28;20281;-49
2023/12/20 05:43:02;;;;;;;0.00;0.00;;;28.80;47.50;;;;;;5090684;28;20216;-54
2023/12/20 05:45:32;;;;;;;0.00;0.00;;;28.80;47.50;;;;;;5090151;28;20647;-50
2023/12/20 05:48:03;;;;;;;0.00;0.00;;;28.80;47.50;;;;;;5090324;28;20206;-51
2023/12/20 05:50:34;;;;;;;0.00;0.00;;;28.90;47.50;;;;;;5089567;28;20257;-49
2023/12/20 05:53:05;;;;;;;0.00;0.00;;;28.90;47.40;;;;;;5090336;28;20285;-51
2023/12/20 05:55:36;;;;;;;0.00;0.00;;;28.90;47.40;;;;;;5086185;28;20213;-52
2023/12/20 05:58:09;;;;;;;0.00;0.00;;;28.90;47.40;;;;;;5093514;28;20658;-49
2023/12/20 06:00:39;;;;;;;0.00;0.00;;;28.90;47.40;;;;;;5095457;28;20721;-50
2023/12/20 06:03:10;;;;;;;0.00;0.00;;;28.90;47.40;;;;;;5092583;28;20206;-51
2023/12/20 06:05:41;;;;;;;0.00;0.00;;;29.00;47.30;;;;;;5093921;28;20297;-49
2023/12/20 06:08:11;;;;;;;0.00;0.00;;;29.00;47.40;;;;;;5093711;28;20263;-53
2023/12/20 06:10:42;;;;;;;0.00;0.00;;;29.00;47.30;;;;;;5100789;22;20208;-49
2023/12/20 06:13:15;;;;;;;0.00;0.00;;;29.00;47.30;;;;;;5045730;28;20192;-49
2023/12/20 06:15:45;;;;;;;0.00;0.00;;;29.10;47.40;;;;;;5033490;28;20219;-49
2023/12/20 06:18:16;;;;;;;0.00;0.00;;;29.10;47.40;;;;;;5033594;28;20203;-50
2023/12/20 06:20:47;;;;;;;0.00;0.00;;;29.10;47.40;;;;;;5039241;28;20200;-49
2023/12/20 06:23:18;;;;;;;0.00;0.00;;;29.10;47.30;;;;;;5032726;28;20203;-49
2023/12/20 06:25:48;;;;;;;0.00;0.00;;;29.20;47.40;;;;;;5042148;28;20211;-51
2023/12/20 06:28:21;;;;;;;0.00;0.00;;;29.20;47.40;;;;;;5033030;28;20196;-48
2023/12/20 06:30:52;;;;;;;0.00;0.00;;;29.20;47.40;;;;;;5033159;28;20230;-49
2023/12/20 06:33:23;;;;;;;0.00;0.00;;;29.20;47.30;;;;;;5033507;28;20192;-49
2023/12/20 06:35:54;;;;;;;0.00;0.00;;;29.20;47.30;;;;;;5062985;28;20272;-46
2023/12/20 06:38:25;;;;;;;0.00;0.00;;;29.20;47.30;;;;;;5033667;28;20755;-45
2023/12/20 06:40:57;;;;;;;0.00;0.00;;;29.30;47.40;;;;;;5034033;28;20204;-46
2023/12/20 06:43:30;;;;;;;0.00;0.00;;;29.20;47.30;;;;;;5034056;28;20200;-45
2023/12/20 06:46:01;;;;;;;0.00;0.00;;;29.30;47.40;;;;;;5033463;28;20216;-48
2023/12/20 06:48:31;;;;;;;0.00;0.00;;;29.30;47.30;;;;;;5033088;28;20204;-46
2023/12/20 06:51:04;;;;;;;0.00;0.00;;;29.30;47.30;;;;;;5032948;28;20228;-49
2023/12/20 06:53:34;;;;;;;0.00;0.00;;;29.30;47.30;;;;;;5032750;28;20283;-49
2023/12/20 06:56:05;;;;;;;0.00;0.00;;;29.40;47.30;;;;;;5033341;28;20216;-46
2023/12/20 06:58:38;;;;;;;0.00;0.00;;;29.40;47.30;;;;;;5032781;28;20227;-44
2023/12/20 07:01:13;;;;;;;0.00;0.00;;;29.40;47.20;;;;;;5060097;28;20559;-48
2023/12/20 07:03:44;;;;;;;0.00;0.00;;;29.40;47.10;;;;;;5072733;28;20230;-49
2023/12/20 07:06:16;;;;;;;0.00;0.00;;;29.40;47.10;;;;;;5072940;28;20278;-48
2023/12/20 07:08:47;;;;;;;0.00;0.00;;;29.40;47.10;;;;;;5072597;28;20195;-46
2023/12/20 07:11:17;;;;;;;0.00;0.00;;;29.50;47.10;;;;;;5070433;28;20214;-45
2023/12/20 07:13:50;;;;;;;0.00;0.00;;;29.50;47.10;;;;;;5052873;28;20238;-48
2023/12/20 07:16:21;;;;;;;0.00;0.00;;;29.50;47.10;;;;;;5052766;28;20227;-43
2023/12/20 07:18:52;;;;;;;0.00;0.00;;;29.50;47.10;;;;;;5052826;28;20282;-45
2023/12/20 07:21:23;;;;;;;0.00;0.00;;;29.50;47.10;;;;;;5052716;28;20252;-44
2023/12/20 07:23:53;;;;;;;0.00;0.00;;;29.50;47.00;;;;;;5051991;28;20207;-45
2023/12/20 07:26:24;;;;;;;0.00;0.00;;;29.50;47.10;;;;;;5052139;28;20199;-45
2023/12/20 07:28:58;;;;;;;0.00;0.00;;;29.50;47.00;;;;;;5052044;28;20269;-48
2023/12/20 07:31:29;;;;;;;0.00;0.00;;;29.50;47.00;;;;;;5052350;28;20290;-52
2023/12/20 07:34:00;;;;;;;0.00;0.00;;;29.50;47.00;;;;;;5054767;28;20210;-46
2023/12/20 07:36:30;;;;;;;0.00;0.00;;;29.50;47.00;;;;;;5072528;28;20201;-47
2023/12/20 07:39:01;;;;;;;0.00;0.00;;;29.50;47.10;;;;;;5072010;28;20202;-46
2023/12/20 07:41:32;;;;;;;0.00;0.00;;;29.50;47.10;;;;;;5067317;28;20234;-42
2023/12/20 07:44:04;;;;;;;0.00;0.00;;;29.50;47.10;;;;;;5048933;28;20466;-43
2023/12/20 07:46:35;;;;;;;0.00;0.00;;;29.50;47.00;;;;;;5051721;28;20200;-43
2023/12/20 07:49:08;;;;;;;0.00;0.00;;;29.50;47.00;;;;;;5042127;28;20196;-43
2023/12/20 07:51:39;;;;;;;0.00;0.00;;;29.50;47.00;;;;;;5049308;28;20239;-43
2023/12/20 07:54:10;;;;;;;0.00;0.00;;;29.50;47.00;;;;;;5051163;28;20247;-44
2023/12/20 07:56:41;;;;;;;0.00;0.00;;;29.50;47.00;;;;;;5051875;28;20269;-42
2023/12/20 07:59:13;;;;;;;0.00;0.00;;;29.50;46.90;;;;;;5031338;28;20656;-43
2023/12/20 08:01:44;;;;;;;0.00;0.00;;;29.40;46.80;;;;;;5045666;28;20192;-45
2023/12/20 08:04:15;;;;;;;0.00;0.00;;;29.40;46.80;;;;;;5046134;28;20254;-46
2023/12/20 08:06:46;;;;;;;0.00;0.00;;;29.40;46.70;;;;;;5050818;28;20199;-45
2023/12/20 08:09:16;;;;;;;0.00;0.00;;;29.40;46.70;;;;;;5038110;28;20238;-41
2023/12/20 08:11:49;;;;;;;0.00;0.00;;;29.40;46.70;;;;;;5052516;28;20239;-42
2023/12/20 08:14:22;;;;;;;0.00;0.00;;;29.30;46.60;;;;;;5031462;28;20216;-43
2023/12/20 08:16:53;;;;;;;0.00;0.00;;;29.30;46.60;;;;;;5030436;28;20223;-47
2023/12/20 08:19:23;;;;;;;0.00;0.00;;;29.30;46.60;;;;;;5030977;28;20540;-46
2023/12/20 08:21:54;;;;;;;0.00;0.00;;;29.30;46.60;;;;;;5035693;28;20214;-49
2023/12/20 08:24:25;;;;;;;0.00;0.00;;;29.30;46.60;;;;;;5045677;28;20320;-49
2023/12/20 08:26:55;;;;;;;0.00;0.00;;;29.20;46.60;;;;;;5042930;28;20226;-51
2023/12/20 08:29:28;;;;;;;0.00;0.00;;;29.20;46.60;;;;;;5030369;28;20279;-49
2023/12/20 08:31:59;;;;;;;0.00;0.00;;;29.20;46.60;;;;;;5029852;28;20211;-47
2023/12/20 08:34:30;;;;;;;0.00;0.00;;;29.10;46.60;;;;;;5030649;28;20372;-51
2023/12/20 08:37:00;;;;;;;0.00;0.00;;;29.10;46.60;;;;;;5051061;28;20562;-43
2023/12/20 08:39:33;;;;;;;0.00;0.00;;;29.10;46.60;;;;;;5032807;28;20195;-49
2023/12/20 08:42:04;;;;;;;0.00;0.00;;;29.10;46.70;;;;;;5052877;28;20203;-42
2023/12/20 08:44:36;;;;;;;0.00;0.00;;;29.00;46.70;;;;;;5046236;28;20283;-42
2023/12/20 08:47:08;;;;;;;0.00;0.00;;;29.00;46.80;;;;;;5070289;28;20290;-41
2023/12/20 08:49:38;;;;;;;0.00;0.00;;;29.00;46.90;;;;;;5038015;28;20191;-41
2023/12/20 08:52:09;;;;;;;0.00;0.00;;;29.00;46.90;;;;;;5048255;28;20187;-41
2023/12/20 08:54:40;;;;;;;0.00;0.00;;;29.00;46.90;;;;;;5030282;28;20571;-41
2023/12/20 08:57:11;;;;;;;0.00;0.00;;;28.90;46.90;;;;;;5031192;28;20282;-45
2023/12/20 08:59:43;;;;;;;0.00;0.00;;;28.90;46.90;;;;;;5030570;28;20203;-41
2023/12/20 09:02:14;;;;;;;0.00;0.00;;;28.90;46.90;;;;;;5048308;28;20622;-43
2023/12/20 09:04:44;;;;;;;0.00;0.00;;;28.90;47.00;;;;;;5050837;28;20222;-47
2023/12/20 09:07:25;;;;;;;0.00;0.00;;;28.80;46.90;;;;;;5051017;28;20199;-43
2023/12/20 09:09:56;;;;;;;0.00;0.00;;;28.80;47.00;;;;;;5030892;28;20219;-46
2023/12/20 09:12:27;;;;;;;0.00;0.00;;;28.80;47.00;;;;;;5043393;28;20246;-43
2023/12/20 09:15:02;;;;;;;0.00;0.00;;;28.70;47.00;;;;;;5050064;28;20224;-43
2023/12/20 09:17:33;;;;;;;0.00;0.00;;;28.70;47.00;;;;;;5047852;28;20205;-45
2023/12/20 09:20:05;;;;;;;0.00;0.00;;;28.70;47.00;;;;;;5031092;28;20246;-42
2023/12/20 09:22:38;;;;;;;0.00;0.00;;;28.70;47.10;;;;;;5030797;28;20200;-42
2023/12/20 09:25:15;;;;;;;0.00;0.00;;;28.60;47.10;;;;;;5031179;28;20243;-43
2023/12/20 09:27:46;;;;;;;0.00;0.00;;;28.60;47.10;;;;;;5030274;28;20246;-40
2023/12/20 09:30:19;;;;;;;0.00;0.00;;;28.60;47.20;;;;;;5045765;28;20360;-43
2023/12/20 09:32:49;;;;;;;0.00;0.00;;;28.60;47.30;;;;;;5055415;28;20718;-41
2023/12/20 09:35:20;;;;;;;0.00;0.00;;;28.50;47.40;;;;;;5074024;28;20215;-42
2023/12/20 09:37:51;;;;;;;0.00;0.00;;;28.50;47.50;;;;;;5063977;28;20194;-44
2023/12/20 09:40:22;;;;;;;0.00;0.00;;;28.50;47.50;;;;;;5054168;28;20195;-42
2023/12/20 09:42:58;;;;;;;0.00;0.00;;;28.50;47.50;;;;;;5054218;28;20191;-44
2023/12/20 09:45:33;;;;;;;0.00;0.00;;;28.50;47.50;;;;;;5054010;28;20276;-46
2023/12/20 09:48:04;;;;;;;0.00;0.00;;;28.40;47.40;;;;;;5049575;28;20190;-45
2023/12/20 09:50:35;;;;;;;0.00;0.00;;;28.40;47.40;;;;;;5034048;28;20259;-42
2023/12/20 09:53:08;;;;;;;0.00;0.00;;;28.40;47.40;;;;;;5034055;28;20188;-43
2023/12/20 09:55:40;;;;;;;0.00;0.00;;;28.40;47.30;;;;;;5034811;28;20219;-41
2023/12/20 09:58:11;;;;;;;0.00;0.00;;;28.30;47.30;;;;;;5049584;28;20204;-42
2023/12/20 10:00:44;;;;;;;0.00;0.00;;;28.30;47.30;;;;;;5034101;28;20395;-43
2023/12/20 10:03:16;;;;;;;0.00;0.00;;;28.30;47.30;;;;;;5033781;28;20275;-42
2023/12/20 10:05:49;;;;;;;0.00;0.00;;;28.20;47.20;;;;;;5034558;28;20388;-41
2023/12/20 10:08:19;;;;;;;0.00;0.00;;;28.20;47.20;;;;;;5034378;28;20223;-42
2023/12/20 10:10:50;;;;;;;0.00;0.00;;;28.20;47.30;;;;;;5050507;28;20219;-42
2023/12/20 10:13:21;;;;;;;0.00;0.00;;;28.20;47.30;;;;;;5033950;28;20196;-43
2023/12/20 10:15:54;;;;;;;0.00;0.00;;;28.20;47.40;;;;;;5038189;28;20313;-42
2023/12/20 10:18:24;;;;;;;0.00;0.00;;;28.10;47.30;;;;;;5053313;28;20207;-45
2023/12/20 10:20:55;;;;;;;0.00;0.00;;;28.10;47.30;;;;;;5053482;28;20206;-45
2023/12/20 10:23:26;;;;;;;0.00;0.00;;;28.10;47.30;;;;;;5052418;28;20199;-46
2023/12/20 10:26:03;;;;;;;0.00;0.00;;;28.00;47.30;;;;;;5052949;28;20703;-46
2023/12/20 10:28:37;;;;;;;0.00;0.00;;;28.00;47.30;;;;;;5047445;28;20199;-44
2023/12/20 10:31:10;;;;;;;0.00;0.00;;;28.00;47.30;;;;;;5033115;28;20231;-43
2023/12/20 10:33:42;;;;;;;0.00;0.00;;;27.90;47.20;;;;;;5033540;28;20204;-44
2023/12/20 10:36:13;;;;;;;0.00;0.00;;;27.90;47.30;;;;;;5043412;28;20194;-49
2023/12/20 10:38:46;;;;;;;0.00;0.00;;;27.90;47.30;;;;;;5051560;28;20622;-48
2023/12/20 10:41:19;;;;;;;0.00;0.00;;;27.90;47.20;;;;;;5069440;28;20206;-45
2023/12/20 10:43:50;;;;;;;0.00;0.00;;;27.80;47.20;;;;;;5052788;28;20191;-47
2023/12/20 10:46:23;;;;;;;0.00;0.00;;;27.80;47.20;;;;;;5053447;28;20204;-48
2023/12/20 10:48:56;;;;;;;0.00;0.00;;;27.80;47.30;;;;;;5044388;28;20196;-46
2023/12/20 10:51:29;;;;;;;0.00;0.00;;;27.80;47.30;;;;;;5033325;28;20228;-43
2023/12/20 10:54:00;;;;;;;0.00;0.00;;;27.70;47.20;;;;;;5039640;28;20183;-46
2023/12/20 10:56:35;;;;;;;0.00;0.00;;;27.70;47.20;;;;;;5053627;28;20203;-41
2023/12/20 10:59:07;;;;;;;0.00;0.00;;;27.70;47.30;;;;;;5052744;28;20218;-45
2023/12/20 11:01:44;;;;;;;0.00;0.00;;;27.70;47.30;;;;;;5052684;28;20261;-42
2023/12/20 11:04:20;;;;;;;0.00;0.00;;;27.60;47.20;;;;;;5032893;28;20223;-48
2023/12/20 11:06:55;;;;;;;0.00;0.00;;;27.60;47.30;;;;;;5033027;28;20649;-44
2023/12/20 11:09:29;;;;;;;0.00;0.00;;;27.60;47.30;;;;;;5033519;28;20192;-43
2023/12/20 11:12:11;;;;;;;0.00;0.00;;;27.50;47.30;;;;;;5041372;28;20733;-43
2023/12/20 11:14:48;;;;;;;0.00;0.00;;;27.50;47.30;;;;;;5052513;28;20286;-43
2023/12/20 11:17:21;;;;;;;0.00;0.00;;;27.50;47.30;;;;;;5052642;28;20199;-43
2023/12/20 11:20:14;;;;;;;0.00;0.00;;;27.50;47.40;;;;;;5038322;28;20193;-42
2023/12/20 11:22:56;;;;;;;0.00;0.00;;;27.40;47.30;;;;;;5032442;28;20211;-46
2023/12/20 11:25:27;;;;;;;0.00;0.00;;;27.40;47.30;;;;;;5032097;28;20216;-42
2023/12/20 11:28:13;;;;;;;0.00;0.00;;;27.40;47.30;;;;;;5032254;28;20199;-43
2023/12/20 11:30:50;;;;;;;0.00;0.00;;;27.30;47.30;;;;;;5045619;28;20227;-47
2023/12/20 11:33:25;;;;;;;0.00;0.00;;;27.30;47.20;;;;;;5070387;28;20195;-45
2023/12/20 11:35:59;;;;;;;0.00;0.00;;;27.30;47.20;;;;;;5032621;28;20289;-44
2023/12/20 11:38:30;;;;;;;0.00;0.00;;;27.30;47.30;;;;;;5047113;28;20611;-42
2023/12/20 11:41:03;;;;;;;0.00;0.00;;;27.20;47.20;;;;;;5051929;28;20203;-49
2023/12/20 11:43:37;;;;;;;0.00;0.00;;;27.20;47.20;;;;;;5049159;28;20861;-52
2023/12/20 11:46:09;;;;;;;0.00;0.00;;;27.20;47.30;;;;;;5036278;28;20702;-52
2023/12/20 11:48:44;;;;;;;0.00;0.00;;;27.20;47.30;;;;;;5052590;28;20211;-48
2023/12/20 11:51:15;;;;;;;0.00;0.00;;;27.10;47.30;;;;;;5052463;28;20222;-50
2023/12/20 11:53:46;;;;;;;0.00;0.00;;;27.10;47.30;;;;;;5051314;28;20203;-50
2023/12/20 11:56:16;;;;;;;0.00;0.00;;;27.10;47.30;;;;;;5052652;28;20200;-53
2023/12/20 11:58:48;;;;;;;0.00;0.00;;;27.00;47.20;;;;;;5052493;28;20643;-52
2023/12/20 12:01:19;;;;;;;0.03;0.03;;;27.00;47.30;;;;;;5052164;28;20195;-50
2023/12/20 12:04:04;;;;;;;0.00;0.00;;;27.00;47.30;;;;;;5052192;28;20195;-48
2023/12/20 12:06:35;;;;;;;0.00;0.00;;;27.00;47.30;;;;;;5055027;28;20192;-49
2023/12/20 12:09:06;;;;;;;0.00;0.00;;;27.00;47.30;;;;;;5052318;28;20191;-51
2023/12/20 12:11:39;;;;;;;0.00;0.00;;;27.00;47.40;;;;;;5052359;28;20263;-52
2023/12/20 12:14:10;;;;;;;0.00;0.00;;;26.90;47.30;;;;;;5051584;28;20215;-49
2023/12/20 12:16:44;;;;;;;0.00;0.00;;;26.90;47.30;;;;;;5052665;28;20203;-50
2023/12/20 12:19:27;;;;;;;0.00;0.00;;;26.90;47.30;;;;;;5052171;28;20663;-48
2023/12/20 12:22:10;;;;;;;0.00;0.00;;;26.90;47.30;;;;;;5052528;28;20195;-46
2023/12/20 12:24:41;;;;;;;0.00;0.00;;;26.80;47.20;;;;;;5045517;28;20219;-46
2023/12/20 12:27:12;;;;;;;0.00;0.00;;;26.80;47.30;;;;;;5040285;28;20681;-51
2023/12/20 12:29:43;;;;;;;0.00;0.00;;;26.80;47.30;;;;;;5042700;28;20192;-52
2023/12/20 12:32:14;;;;;;;0.00;0.00;;;26.80;47.30;;;;;;5040498;28;20223;-48
2023/12/20 12:34:47;;;;;;;0.00;0.00;;;26.80;47.30;;;;;;5040993;28;20220;-48
2023/12/20 12:37:17;;;;;;;0.00;0.00;;;26.70;47.20;;;;;;5040692;28;20203;-48
2023/12/20 12:39:49;;;;;;;0.00;0.00;;;26.70;47.30;;;;;;5041017;28;20195;-49
2023/12/20 12:42:20;;;;;;;0.00;0.00;;;26.70;47.30;;;;;;5045257;28;20235;-50
2023/12/20 12:44:51;;;;;;;0.00;0.00;;;26.60;47.20;;;;;;5050849;28;20219;-48
2023/12/20 12:47:22;;;;;;;0.00;0.00;;;26.60;47.30;;;;;;5051351;28;20563;-52
2023/12/20 12:49:55;;;;;;;0.00;0.00;;;26.60;47.90;;;;;;5051056;28;20207;-50
2023/12/20 12:52:26;;;;;;;0.00;0.00;;;26.60;47.30;;;;;;5055566;28;20689;-47
2023/12/20 12:54:57;;;;;;;0.00;0.00;;;26.60;47.30;;;;;;5070778;28;20223;-46
2023/12/20 12:57:28;;;;;;;0.00;0.00;;;26.60;47.30;;;;;;5070723;28;20195;-47
2023/12/20 12:59:58;;;;;;;0.00;0.00;;;26.50;47.30;;;;;;5057216;28;20196;-48
2023/12/20 13:02:29;;;;;;;0.00;0.00;;;26.50;47.30;;;;;;5051191;28;20207;-48
2023/12/20 13:05:02;;;;;;;0.00;0.00;;;26.50;47.30;;;;;;5050326;28;20218;-47
2023/12/20 13:07:33;;;;;;;0.00;0.00;;;26.50;47.30;;;;;;5051178;28;20290;-48
2023/12/20 13:10:04;;;;;;;0.00;0.00;;;26.50;47.30;;;;;;5051194;28;20195;-51
2023/12/20 13:12:34;;;;;;;0.00;0.00;;;26.40;47.20;;;;;;5050976;28;20235;-47